sensor_id;sensor_type;location;lat;lon;timestamp;P1;durP1;ratioP1;P2;durP2;ratioP2
64686;SDS011;51113;53.646;-113.674;2023-02-03T00:00:10;5.50;;;2.30;;
64686;SDS011;51113;53.646;-113.674;2023-02-03T00:02:39;4.75;;;2.33;;
64686;SDS011;51113;53.646;-113.674;2023-02-03T00:05:08;6.97;;;2.33;;
64686;SDS011;51113;53.646;-113.674;2023-02-03T00:07:37;4.32;;;1.88;;
64686;SDS011;51113;53.646;-113.674;2023-02-03T00:10:06;2.33;;;1.55;;
64686;SDS011;51113;53.646;-113.674;2023-02-03T00:12:35;5.38;;;2.15;;
64686;SDS011;51113;53.646;-113.674;2023-02-03T00:15:04;12.82;;;2.60;;
64686;SDS011;51113;53.646;-113.674;2023-02-03T00:17:32;4.75;;;1.98;;
64686;SDS011;51113;53.646;-113.674;2023-02-03T00:20:01;3.58;;;2.00;;
64686;SDS011;51113;53.646;-113.674;2023-02-03T00:22:29;8.68;;;1.90;;
64686;SDS011;51113;53.646;-113.674;2023-02-03T00:24:58;2.88;;;1.58;;
64686;SDS011;51113;53.646;-113.674;2023-02-03T00:27:27;6.00;;;2.17;;
64686;SDS011;51113;53.646;-113.674;2023-02-03T00:29:55;14.45;;;2.00;;
64686;SDS011;51113;53.646;-113.674;2023-02-03T00:32:24;4.93;;;2.17;;
64686;SDS011;51113;53.646;-113.674;2023-02-03T00:34:53;5.05;;;2.20;;
64686;SDS011;51113;53.646;-113.674;2023-02-03T00:37:21;6.90;;;2.25;;
64686;SDS011;51113;53.646;-113.674;2023-02-03T00:39:50;4.63;;;2.60;;
64686;SDS011;51113;53.646;-113.674;2023-02-03T00:42:18;7.93;;;2.13;;
64686;SDS011;51113;53.646;-113.674;2023-02-03T00:44:47;6.30;;;2.30;;
64686;SDS011;51113;53.646;-113.674;2023-02-03T00:47:15;3.97;;;1.77;;
64686;SDS011;51113;53.646;-113.674;2023-02-03T00:49:44;7.00;;;1.85;;
64686;SDS011;51113;53.646;-113.674;2023-02-03T00:52:12;8.30;;;2.20;;
64686;SDS011;51113;53.646;-113.674;2023-02-03T00:54:41;4.80;;;2.28;;
64686;SDS011;51113;53.646;-113.674;2023-02-03T00:57:09;4.68;;;2.00;;
64686;SDS011;51113;53.646;-113.674;2023-02-03T00:59:38;8.82;;;2.83;;
64686;SDS011;51113;53.646;-113.674;2023-02-03T01:02:06;5.40;;;2.00;;
64686;SDS011;51113;53.646;-113.674;2023-02-03T01:04:35;4.43;;;1.75;;
64686;SDS011;51113;53.646;-113.674;2023-02-03T01:07:04;4.00;;;1.95;;
64686;SDS011;51113;53.646;-113.674;2023-02-03T01:09:33;6.43;;;2.03;;
64686;SDS011;51113;53.646;-113.674;2023-02-03T01:12:04;3.97;;;1.67;;
64686;SDS011;51113;53.646;-113.674;2023-02-03T01:14:33;3.30;;;1.92;;
64686;SDS011;51113;53.646;-113.674;2023-02-03T01:17:01;5.65;;;1.95;;
64686;SDS011;51113;53.646;-113.674;2023-02-03T01:19:30;4.45;;;2.20;;
64686;SDS011;51113;53.646;-113.674;2023-02-03T01:21:59;6.72;;;2.00;;
64686;SDS011;51113;53.646;-113.674;2023-02-03T01:24:28;4.57;;;2.13;;
64686;SDS011;51113;53.646;-113.674;2023-02-03T01:26:57;2.90;;;1.90;;
64686;SDS011;51113;53.646;-113.674;2023-02-03T01:29:26;17.77;;;2.25;;
64686;SDS011;51113;53.646;-113.674;2023-02-03T01:31:54;3.83;;;2.03;;
64686;SDS011;51113;53.646;-113.674;2023-02-03T01:34:23;3.92;;;2.17;;
64686;SDS011;51113;53.646;-113.674;2023-02-03T01:36:51;7.53;;;1.92;;
64686;SDS011;51113;53.646;-113.674;2023-02-03T01:39:20;2.95;;;2.00;;
64686;SDS011;51113;53.646;-113.674;2023-02-03T01:41:49;6.32;;;2.38;;
64686;SDS011;51113;53.646;-113.674;2023-02-03T01:49:45;4.10;;;2.25;;
64686;SDS011;51113;53.646;-113.674;2023-02-03T01:52:20;3.95;;;1.85;;
64686;SDS011;51113;53.646;-113.674;2023-02-03T01:54:48;3.88;;;2.20;;
64686;SDS011;51113;53.646;-113.674;2023-02-03T01:57:21;5.07;;;2.08;;
64686;SDS011;51113;53.646;-113.674;2023-02-03T01:59:54;3.85;;;2.00;;
64686;SDS011;51113;53.646;-113.674;2023-02-03T02:02:25;4.47;;;2.17;;
64686;SDS011;51113;53.646;-113.674;2023-02-03T02:05:05;4.47;;;1.95;;
64686;SDS011;51113;53.646;-113.674;2023-02-03T02:07:36;3.35;;;1.90;;
64686;SDS011;51113;53.646;-113.674;2023-02-03T02:10:07;3.72;;;1.73;;
64686;SDS011;51113;53.646;-113.674;2023-02-03T02:12:37;7.25;;;2.30;;
64686;SDS011;51113;53.646;-113.674;2023-02-03T02:15:05;4.22;;;1.90;;
64686;SDS011;51113;53.646;-113.674;2023-02-03T02:17:45;6.05;;;2.35;;
64686;SDS011;51113;53.646;-113.674;2023-02-03T02:36:59;5.80;;;1.60;;
64686;SDS011;51113;53.646;-113.674;2023-02-03T02:39:43;7.72;;;1.85;;
64686;SDS011;51113;53.646;-113.674;2023-02-03T02:44:45;11.02;;;2.40;;
64686;SDS011;51113;53.646;-113.674;2023-02-03T02:47:18;3.70;;;1.80;;
64686;SDS011;51113;53.646;-113.674;2023-02-03T02:49:59;4.05;;;2.13;;
64686;SDS011;51113;53.646;-113.674;2023-02-03T02:52:33;5.07;;;2.03;;
64686;SDS011;51113;53.646;-113.674;2023-02-03T02:55:06;2.90;;;1.83;;
64686;SDS011;51113;53.646;-113.674;2023-02-03T02:57:40;5.60;;;2.15;;
64686;SDS011;51113;53.646;-113.674;2023-02-03T03:00:10;3.15;;;1.85;;
64686;SDS011;51113;53.646;-113.674;2023-02-03T03:02:47;6.80;;;2.28;;
64686;SDS011;51113;53.646;-113.674;2023-02-03T03:05:16;3.33;;;1.90;;
64686;SDS011;51113;53.646;-113.674;2023-02-03T03:07:54;6.47;;;2.10;;
64686;SDS011;51113;53.646;-113.674;2023-02-03T03:10:26;3.83;;;2.10;;
64686;SDS011;51113;53.646;-113.674;2023-02-03T03:13:01;3.67;;;1.90;;
64686;SDS011;51113;53.646;-113.674;2023-02-03T03:15:32;3.67;;;2.10;;
64686;SDS011;51113;53.646;-113.674;2023-02-03T03:21:20;2.83;;;1.63;;
64686;SDS011;51113;53.646;-113.674;2023-02-03T03:23:52;3.13;;;1.90;;
64686;SDS011;51113;53.646;-113.674;2023-02-03T03:26:34;3.95;;;2.17;;
64686;SDS011;51113;53.646;-113.674;2023-02-03T03:31:48;5.50;;;2.03;;
64686;SDS011;51113;53.646;-113.674;2023-02-03T03:34:18;5.30;;;1.90;;
64686;SDS011;51113;53.646;-113.674;2023-02-03T03:37:49;3.70;;;1.92;;
64686;SDS011;51113;53.646;-113.674;2023-02-03T03:39:53;7.30;;;1.80;;
64686;SDS011;51113;53.646;-113.674;2023-02-03T03:42:33;6.30;;;2.28;;
64686;SDS011;51113;53.646;-113.674;2023-02-03T03:45:26;4.65;;;2.00;;
64686;SDS011;51113;53.646;-113.674;2023-02-03T03:48:06;3.33;;;1.90;;
64686;SDS011;51113;53.646;-113.674;2023-02-03T03:50:43;2.58;;;1.50;;
64686;SDS011;51113;53.646;-113.674;2023-02-03T03:53:15;3.17;;;2.15;;
64686;SDS011;51113;53.646;-113.674;2023-02-03T03:55:46;3.78;;;2.00;;
64686;SDS011;51113;53.646;-113.674;2023-02-03T03:58:18;5.68;;;2.10;;
64686;SDS011;51113;53.646;-113.674;2023-02-03T04:00:50;5.65;;;2.08;;
64686;SDS011;51113;53.646;-113.674;2023-02-03T04:03:24;5.47;;;2.30;;
64686;SDS011;51113;53.646;-113.674;2023-02-03T04:05:55;3.17;;;1.65;;
64686;SDS011;51113;53.646;-113.674;2023-02-03T04:08:24;5.22;;;2.40;;
64686;SDS011;51113;53.646;-113.674;2023-02-03T04:10:52;3.75;;;2.40;;
64686;SDS011;51113;53.646;-113.674;2023-02-03T04:13:21;3.97;;;1.77;;
64686;SDS011;51113;53.646;-113.674;2023-02-03T04:15:50;4.97;;;2.78;;
64686;SDS011;51113;53.646;-113.674;2023-02-03T04:18:19;4.20;;;2.10;;
64686;SDS011;51113;53.646;-113.674;2023-02-03T04:20:47;3.28;;;1.90;;
64686;SDS011;51113;53.646;-113.674;2023-02-03T04:23:15;5.63;;;2.17;;
64686;SDS011;51113;53.646;-113.674;2023-02-03T04:25:43;4.72;;;1.92;;
64686;SDS011;51113;53.646;-113.674;2023-02-03T04:28:12;7.68;;;2.25;;
64686;SDS011;51113;53.646;-113.674;2023-02-03T04:30:40;4.05;;;1.90;;
64686;SDS011;51113;53.646;-113.674;2023-02-03T04:33:09;3.55;;;2.05;;
64686;SDS011;51113;53.646;-113.674;2023-02-03T04:35:38;2.97;;;1.95;;
64686;SDS011;51113;53.646;-113.674;2023-02-03T04:38:06;4.72;;;2.30;;
64686;SDS011;51113;53.646;-113.674;2023-02-03T04:40:34;6.97;;;1.98;;
64686;SDS011;51113;53.646;-113.674;2023-02-03T04:43:06;2.88;;;1.73;;
64686;SDS011;51113;53.646;-113.674;2023-02-03T04:45:35;3.35;;;2.00;;
64686;SDS011;51113;53.646;-113.674;2023-02-03T04:48:04;4.20;;;2.28;;
64686;SDS011;51113;53.646;-113.674;2023-02-03T04:50:33;4.38;;;2.13;;
64686;SDS011;51113;53.646;-113.674;2023-02-03T04:53:01;4.18;;;1.95;;
64686;SDS011;51113;53.646;-113.674;2023-02-03T04:55:29;4.68;;;2.25;;
64686;SDS011;51113;53.646;-113.674;2023-02-03T04:57:58;4.50;;;2.28;;
64686;SDS011;51113;53.646;-113.674;2023-02-03T05:00:28;7.38;;;2.40;;
64686;SDS011;51113;53.646;-113.674;2023-02-03T05:02:56;4.28;;;2.35;;
64686;SDS011;51113;53.646;-113.674;2023-02-03T05:05:25;7.28;;;2.10;;
64686;SDS011;51113;53.646;-113.674;2023-02-03T05:07:54;4.45;;;2.15;;
64686;SDS011;51113;53.646;-113.674;2023-02-03T05:10:22;5.80;;;2.25;;
64686;SDS011;51113;53.646;-113.674;2023-02-03T05:12:51;4.35;;;2.15;;
64686;SDS011;51113;53.646;-113.674;2023-02-03T05:15:20;5.90;;;2.67;;
64686;SDS011;51113;53.646;-113.674;2023-02-03T05:17:52;6.18;;;2.00;;
64686;SDS011;51113;53.646;-113.674;2023-02-03T05:20:21;3.20;;;2.30;;
64686;SDS011;51113;53.646;-113.674;2023-02-03T05:22:50;4.22;;;1.92;;
64686;SDS011;51113;53.646;-113.674;2023-02-03T05:25:18;4.50;;;1.98;;
64686;SDS011;51113;53.646;-113.674;2023-02-03T05:27:47;5.97;;;2.25;;
64686;SDS011;51113;53.646;-113.674;2023-02-03T05:30:16;5.25;;;1.92;;
64686;SDS011;51113;53.646;-113.674;2023-02-03T05:32:45;4.85;;;2.70;;
64686;SDS011;51113;53.646;-113.674;2023-02-03T05:35:13;3.28;;;2.13;;
64686;SDS011;51113;53.646;-113.674;2023-02-03T05:37:43;4.20;;;2.20;;
64686;SDS011;51113;53.646;-113.674;2023-02-03T05:40:12;3.42;;;2.13;;
64686;SDS011;51113;53.646;-113.674;2023-02-03T05:43:01;5.20;;;2.40;;
64686;SDS011;51113;53.646;-113.674;2023-02-03T05:45:30;5.63;;;2.45;;
64686;SDS011;51113;53.646;-113.674;2023-02-03T05:47:59;4.47;;;2.30;;
64686;SDS011;51113;53.646;-113.674;2023-02-03T05:50:29;4.20;;;2.45;;
64686;SDS011;51113;53.646;-113.674;2023-02-03T05:53:04;3.65;;;2.00;;
64686;SDS011;51113;53.646;-113.674;2023-02-03T05:55:33;3.92;;;2.22;;
64686;SDS011;51113;53.646;-113.674;2023-02-03T05:58:03;3.92;;;2.20;;
64686;SDS011;51113;53.646;-113.674;2023-02-03T06:00:31;7.25;;;2.10;;
64686;SDS011;51113;53.646;-113.674;2023-02-03T06:03:00;3.05;;;1.80;;
64686;SDS011;51113;53.646;-113.674;2023-02-03T06:05:31;4.03;;;2.40;;
64686;SDS011;51113;53.646;-113.674;2023-02-03T06:08:00;10.55;;;2.58;;
64686;SDS011;51113;53.646;-113.674;2023-02-03T06:10:29;5.72;;;2.47;;
64686;SDS011;51113;53.646;-113.674;2023-02-03T06:12:58;4.90;;;2.40;;
64686;SDS011;51113;53.646;-113.674;2023-02-03T06:15:26;3.15;;;2.08;;
64686;SDS011;51113;53.646;-113.674;2023-02-03T06:17:55;3.97;;;2.08;;
64686;SDS011;51113;53.646;-113.674;2023-02-03T06:20:23;5.75;;;2.35;;
64686;SDS011;51113;53.646;-113.674;2023-02-03T06:22:52;3.63;;;2.05;;
64686;SDS011;51113;53.646;-113.674;2023-02-03T06:25:21;6.13;;;2.85;;
64686;SDS011;51113;53.646;-113.674;2023-02-03T06:27:50;5.35;;;2.78;;
64686;SDS011;51113;53.646;-113.674;2023-02-03T06:30:19;4.75;;;2.10;;
64686;SDS011;51113;53.646;-113.674;2023-02-03T06:32:50;3.03;;;2.10;;
64686;SDS011;51113;53.646;-113.674;2023-02-03T06:35:19;4.15;;;2.10;;
64686;SDS011;51113;53.646;-113.674;2023-02-03T06:37:47;6.72;;;2.33;;
64686;SDS011;51113;53.646;-113.674;2023-02-03T06:40:16;5.00;;;2.28;;
64686;SDS011;51113;53.646;-113.674;2023-02-03T06:42:45;6.85;;;2.58;;
64686;SDS011;51113;53.646;-113.674;2023-02-03T06:45:14;5.50;;;2.47;;
64686;SDS011;51113;53.646;-113.674;2023-02-03T06:47:43;3.85;;;2.25;;
64686;SDS011;51113;53.646;-113.674;2023-02-03T06:50:13;5.30;;;2.63;;
64686;SDS011;51113;53.646;-113.674;2023-02-03T06:52:42;3.63;;;2.38;;
64686;SDS011;51113;53.646;-113.674;2023-02-03T06:55:11;5.80;;;2.60;;
64686;SDS011;51113;53.646;-113.674;2023-02-03T06:57:43;6.43;;;3.30;;
64686;SDS011;51113;53.646;-113.674;2023-02-03T07:00:14;4.95;;;2.50;;
64686;SDS011;51113;53.646;-113.674;2023-02-03T07:02:52;6.50;;;2.75;;
64686;SDS011;51113;53.646;-113.674;2023-02-03T07:05:22;6.82;;;2.70;;
64686;SDS011;51113;53.646;-113.674;2023-02-03T07:07:51;4.15;;;2.50;;
64686;SDS011;51113;53.646;-113.674;2023-02-03T07:10:20;6.65;;;2.40;;
64686;SDS011;51113;53.646;-113.674;2023-02-03T07:12:49;5.68;;;2.78;;
64686;SDS011;51113;53.646;-113.674;2023-02-03T07:15:18;4.40;;;2.92;;
64686;SDS011;51113;53.646;-113.674;2023-02-03T07:17:47;8.48;;;2.50;;
64686;SDS011;51113;53.646;-113.674;2023-02-03T07:22:53;3.13;;;1.77;;
64686;SDS011;51113;53.646;-113.674;2023-02-03T07:25:23;5.18;;;2.42;;
64686;SDS011;51113;53.646;-113.674;2023-02-03T07:27:52;8.40;;;2.70;;
64686;SDS011;51113;53.646;-113.674;2023-02-03T07:30:21;7.15;;;2.75;;
64686;SDS011;51113;53.646;-113.674;2023-02-03T07:32:50;5.60;;;2.70;;
64686;SDS011;51113;53.646;-113.674;2023-02-03T07:35:19;6.15;;;2.90;;
64686;SDS011;51113;53.646;-113.674;2023-02-03T07:37:48;5.43;;;3.00;;
64686;SDS011;51113;53.646;-113.674;2023-02-03T07:40:16;5.00;;;2.22;;
64686;SDS011;51113;53.646;-113.674;2023-02-03T07:42:46;4.95;;;2.80;;
64686;SDS011;51113;53.646;-113.674;2023-02-03T07:45:16;5.93;;;2.97;;
64686;SDS011;51113;53.646;-113.674;2023-02-03T07:47:48;6.13;;;3.08;;
64686;SDS011;51113;53.646;-113.674;2023-02-03T07:50:16;8.18;;;3.22;;
64686;SDS011;51113;53.646;-113.674;2023-02-03T07:52:45;5.45;;;3.03;;
64686;SDS011;51113;53.646;-113.674;2023-02-03T07:55:13;5.18;;;2.90;;
64686;SDS011;51113;53.646;-113.674;2023-02-03T07:57:42;9.10;;;3.03;;
64686;SDS011;51113;53.646;-113.674;2023-02-03T08:00:12;6.25;;;2.72;;
64686;SDS011;51113;53.646;-113.674;2023-02-03T08:02:42;4.95;;;2.78;;
64686;SDS011;51113;53.646;-113.674;2023-02-03T08:05:11;5.82;;;2.70;;
64686;SDS011;51113;53.646;-113.674;2023-02-03T08:07:41;4.60;;;2.88;;
64686;SDS011;51113;53.646;-113.674;2023-02-03T08:10:10;8.13;;;3.17;;
64686;SDS011;51113;53.646;-113.674;2023-02-03T08:12:40;5.47;;;2.72;;
64686;SDS011;51113;53.646;-113.674;2023-02-03T08:17:41;4.82;;;3.00;;
64686;SDS011;51113;53.646;-113.674;2023-02-03T08:20:11;6.97;;;3.25;;
64686;SDS011;51113;53.646;-113.674;2023-02-03T08:22:39;4.70;;;3.17;;
64686;SDS011;51113;53.646;-113.674;2023-02-03T08:25:08;6.07;;;3.40;;
64686;SDS011;51113;53.646;-113.674;2023-02-03T08:27:38;6.90;;;3.42;;
64686;SDS011;51113;53.646;-113.674;2023-02-03T08:30:07;9.05;;;3.15;;
64686;SDS011;51113;53.646;-113.674;2023-02-03T08:32:38;7.13;;;3.70;;
64686;SDS011;51113;53.646;-113.674;2023-02-03T08:35:07;6.50;;;3.30;;
64686;SDS011;51113;53.646;-113.674;2023-02-03T08:37:35;10.48;;;3.78;;
64686;SDS011;51113;53.646;-113.674;2023-02-03T08:40:05;5.78;;;3.10;;
64686;SDS011;51113;53.646;-113.674;2023-02-03T08:42:34;5.75;;;3.30;;
64686;SDS011;51113;53.646;-113.674;2023-02-03T08:45:03;5.57;;;3.17;;
64686;SDS011;51113;53.646;-113.674;2023-02-03T08:47:32;6.47;;;3.80;;
64686;SDS011;51113;53.646;-113.674;2023-02-03T08:50:03;7.25;;;4.78;;
64686;SDS011;51113;53.646;-113.674;2023-02-03T08:52:32;5.85;;;3.13;;
64686;SDS011;51113;53.646;-113.674;2023-02-03T08:55:01;11.75;;;3.33;;
64686;SDS011;51113;53.646;-113.674;2023-02-03T08:57:32;6.50;;;3.42;;
64686;SDS011;51113;53.646;-113.674;2023-02-03T09:00:03;8.32;;;4.47;;
64686;SDS011;51113;53.646;-113.674;2023-02-03T09:02:33;9.70;;;3.78;;
64686;SDS011;51113;53.646;-113.674;2023-02-03T09:05:01;6.82;;;3.30;;
64686;SDS011;51113;53.646;-113.674;2023-02-03T09:07:31;8.93;;;4.00;;
64686;SDS011;51113;53.646;-113.674;2023-02-03T09:09:59;5.90;;;3.45;;
64686;SDS011;51113;53.646;-113.674;2023-02-03T09:12:28;8.50;;;3.40;;
64686;SDS011;51113;53.646;-113.674;2023-02-03T09:14:56;6.93;;;3.53;;
64686;SDS011;51113;53.646;-113.674;2023-02-03T09:17:25;4.60;;;2.92;;
64686;SDS011;51113;53.646;-113.674;2023-02-03T09:19:54;7.68;;;3.67;;
64686;SDS011;51113;53.646;-113.674;2023-02-03T09:22:23;10.20;;;3.30;;
64686;SDS011;51113;53.646;-113.674;2023-02-03T09:24:51;6.82;;;3.65;;
64686;SDS011;51113;53.646;-113.674;2023-02-03T09:27:20;7.07;;;3.70;;
64686;SDS011;51113;53.646;-113.674;2023-02-03T09:29:49;9.27;;;4.07;;
64686;SDS011;51113;53.646;-113.674;2023-02-03T09:32:17;9.07;;;4.20;;
64686;SDS011;51113;53.646;-113.674;2023-02-03T09:34:46;5.82;;;3.65;;
64686;SDS011;51113;53.646;-113.674;2023-02-03T09:37:14;7.45;;;4.15;;
64686;SDS011;51113;53.646;-113.674;2023-02-03T09:39:43;8.10;;;4.25;;
64686;SDS011;51113;53.646;-113.674;2023-02-03T09:42:29;6.63;;;4.57;;
64686;SDS011;51113;53.646;-113.674;2023-02-03T09:45:25;7.15;;;4.03;;
64686;SDS011;51113;53.646;-113.674;2023-02-03T09:48:14;9.07;;;4.28;;
64686;SDS011;51113;53.646;-113.674;2023-02-03T09:50:51;5.15;;;3.53;;
64686;SDS011;51113;53.646;-113.674;2023-02-03T09:53:27;8.07;;;4.32;;
64686;SDS011;51113;53.646;-113.674;2023-02-03T09:56:01;7.70;;;4.13;;
64686;SDS011;51113;53.646;-113.674;2023-02-03T09:58:33;8.77;;;4.28;;
64686;SDS011;51113;53.646;-113.674;2023-02-03T10:01:02;7.55;;;4.32;;
64686;SDS011;51113;53.646;-113.674;2023-02-03T10:06:32;12.00;;;4.88;;
64686;SDS011;51113;53.646;-113.674;2023-02-03T10:09:16;6.82;;;3.95;;
64686;SDS011;51113;53.646;-113.674;2023-02-03T10:17:24;9.98;;;4.38;;
64686;SDS011;51113;53.646;-113.674;2023-02-03T10:22:40;8.10;;;4.45;;
64686;SDS011;51113;53.646;-113.674;2023-02-03T10:25:23;8.38;;;4.28;;
64686;SDS011;51113;53.646;-113.674;2023-02-03T10:27:58;12.65;;;4.15;;
64686;SDS011;51113;53.646;-113.674;2023-02-03T10:30:30;10.75;;;4.80;;
64686;SDS011;51113;53.646;-113.674;2023-02-03T10:33:13;9.65;;;4.53;;
64686;SDS011;51113;53.646;-113.674;2023-02-03T10:39:00;8.25;;;4.72;;
64686;SDS011;51113;53.646;-113.674;2023-02-03T10:41:33;13.25;;;5.70;;
64686;SDS011;51113;53.646;-113.674;2023-02-03T10:44:02;9.70;;;5.03;;
64686;SDS011;51113;53.646;-113.674;2023-02-03T10:46:34;7.63;;;5.03;;
64686;SDS011;51113;53.646;-113.674;2023-02-03T10:49:04;8.88;;;5.10;;
64686;SDS011;51113;53.646;-113.674;2023-02-03T10:51:37;8.90;;;5.47;;
64686;SDS011;51113;53.646;-113.674;2023-02-03T10:54:42;8.95;;;5.60;;
64686;SDS011;51113;53.646;-113.674;2023-02-03T10:57:05;9.23;;;4.88;;
64686;SDS011;51113;53.646;-113.674;2023-02-03T10:59:44;8.75;;;5.13;;
64686;SDS011;51113;53.646;-113.674;2023-02-03T11:02:21;10.05;;;5.90;;
64686;SDS011;51113;53.646;-113.674;2023-02-03T11:07:49;10.18;;;5.20;;
64686;SDS011;51113;53.646;-113.674;2023-02-03T11:10:37;11.57;;;5.90;;
64686;SDS011;51113;53.646;-113.674;2023-02-03T11:13:18;12.45;;;6.28;;
64686;SDS011;51113;53.646;-113.674;2023-02-03T11:15:52;12.60;;;5.30;;
64686;SDS011;51113;53.646;-113.674;2023-02-03T11:21:12;8.13;;;5.23;;
64686;SDS011;51113;53.646;-113.674;2023-02-03T11:23:56;11.43;;;5.47;;
64686;SDS011;51113;53.646;-113.674;2023-02-03T11:26:56;9.45;;;5.50;;
64686;SDS011;51113;53.646;-113.674;2023-02-03T11:29:28;10.82;;;6.00;;
64686;SDS011;51113;53.646;-113.674;2023-02-03T11:34:31;10.48;;;5.35;;
64686;SDS011;51113;53.646;-113.674;2023-02-03T11:42:34;10.15;;;5.68;;
64686;SDS011;51113;53.646;-113.674;2023-02-03T11:50:22;10.73;;;5.95;;
64686;SDS011;51113;53.646;-113.674;2023-02-03T11:52:59;10.88;;;6.50;;
64686;SDS011;51113;53.646;-113.674;2023-02-03T11:58:26;15.77;;;6.55;;
64686;SDS011;51113;53.646;-113.674;2023-02-03T12:01:25;9.63;;;6.18;;
64686;SDS011;51113;53.646;-113.674;2023-02-03T12:07:15;11.75;;;6.38;;
64686;SDS011;51113;53.646;-113.674;2023-02-03T12:12:56;11.43;;;6.18;;
64686;SDS011;51113;53.646;-113.674;2023-02-03T12:15:38;14.48;;;6.60;;
64686;SDS011;51113;53.646;-113.674;2023-02-03T12:18:29;11.38;;;6.30;;
64686;SDS011;51113;53.646;-113.674;2023-02-03T12:21:03;14.15;;;6.82;;
64686;SDS011;51113;53.646;-113.674;2023-02-03T12:26:40;10.57;;;6.05;;
64686;SDS011;51113;53.646;-113.674;2023-02-03T12:29:44;11.68;;;6.40;;
64686;SDS011;51113;53.646;-113.674;2023-02-03T12:32:52;12.18;;;7.10;;
64686;SDS011;51113;53.646;-113.674;2023-02-03T12:35:32;11.85;;;7.10;;
64686;SDS011;51113;53.646;-113.674;2023-02-03T12:38:04;14.88;;;7.07;;
64686;SDS011;51113;53.646;-113.674;2023-02-03T12:40:58;10.75;;;6.22;;
64686;SDS011;51113;53.646;-113.674;2023-02-03T12:51:32;10.00;;;6.72;;
64686;SDS011;51113;53.646;-113.674;2023-02-03T12:54:06;13.77;;;6.30;;
64686;SDS011;51113;53.646;-113.674;2023-02-03T12:56:42;14.43;;;7.20;;
64686;SDS011;51113;53.646;-113.674;2023-02-03T12:59:12;14.52;;;7.30;;
64686;SDS011;51113;53.646;-113.674;2023-02-03T13:04:22;10.93;;;6.50;;
64686;SDS011;51113;53.646;-113.674;2023-02-03T13:09:52;11.15;;;6.93;;
64686;SDS011;51113;53.646;-113.674;2023-02-03T13:12:32;15.73;;;8.27;;
64686;SDS011;51113;53.646;-113.674;2023-02-03T13:15:46;15.57;;;7.40;;
64686;SDS011;51113;53.646;-113.674;2023-02-03T13:18:23;12.70;;;7.15;;
64686;SDS011;51113;53.646;-113.674;2023-02-03T13:20:56;13.82;;;7.82;;
64686;SDS011;51113;53.646;-113.674;2023-02-03T13:23:24;12.68;;;7.85;;
64686;SDS011;51113;53.646;-113.674;2023-02-03T13:26:06;12.10;;;6.60;;
64686;SDS011;51113;53.646;-113.674;2023-02-03T13:34:34;17.17;;;7.60;;
64686;SDS011;51113;53.646;-113.674;2023-02-03T13:37:26;19.23;;;8.70;;
64686;SDS011;51113;53.646;-113.674;2023-02-03T13:42:46;12.93;;;7.57;;
64686;SDS011;51113;53.646;-113.674;2023-02-03T13:48:08;15.07;;;8.23;;
64686;SDS011;51113;53.646;-113.674;2023-02-03T13:50:37;14.20;;;7.72;;
64686;SDS011;51113;53.646;-113.674;2023-02-03T13:55:42;16.63;;;7.85;;
64686;SDS011;51113;53.646;-113.674;2023-02-03T13:58:25;13.43;;;8.15;;
64686;SDS011;51113;53.646;-113.674;2023-02-03T14:01:25;13.05;;;7.60;;
64686;SDS011;51113;53.646;-113.674;2023-02-03T14:03:57;15.30;;;8.05;;
64686;SDS011;51113;53.646;-113.674;2023-02-03T14:07:19;13.10;;;8.15;;
64686;SDS011;51113;53.646;-113.674;2023-02-03T14:09:22;14.00;;;7.78;;
64686;SDS011;51113;53.646;-113.674;2023-02-03T14:20:03;14.07;;;8.93;;
64686;SDS011;51113;53.646;-113.674;2023-02-03T14:25:53;23.50;;;9.05;;
64686;SDS011;51113;53.646;-113.674;2023-02-03T14:28:26;13.75;;;8.32;;
64686;SDS011;51113;53.646;-113.674;2023-02-03T14:31:11;16.95;;;8.10;;
64686;SDS011;51113;53.646;-113.674;2023-02-03T14:33:53;15.13;;;8.95;;
64686;SDS011;51113;53.646;-113.674;2023-02-03T14:44:38;14.38;;;8.70;;
64686;SDS011;51113;53.646;-113.674;2023-02-03T14:58:22;18.88;;;8.07;;
64686;SDS011;51113;53.646;-113.674;2023-02-03T15:04:25;12.73;;;7.78;;
64686;SDS011;51113;53.646;-113.674;2023-02-03T15:06:53;13.43;;;8.35;;
64686;SDS011;51113;53.646;-113.674;2023-02-03T15:12:18;20.55;;;9.15;;
64686;SDS011;51113;53.646;-113.674;2023-02-03T15:14:51;14.98;;;8.50;;
64686;SDS011;51113;53.646;-113.674;2023-02-03T15:17:25;15.73;;;8.52;;
64686;SDS011;51113;53.646;-113.674;2023-02-03T15:19:54;14.80;;;8.20;;
64686;SDS011;51113;53.646;-113.674;2023-02-03T15:22:24;15.35;;;9.13;;
64686;SDS011;51113;53.646;-113.674;2023-02-03T15:24:54;15.27;;;8.18;;
64686;SDS011;51113;53.646;-113.674;2023-02-03T15:27:30;19.15;;;10.02;;
64686;SDS011;51113;53.646;-113.674;2023-02-03T15:30:13;16.50;;;10.13;;
64686;SDS011;51113;53.646;-113.674;2023-02-03T15:33:05;17.55;;;9.80;;
64686;SDS011;51113;53.646;-113.674;2023-02-03T15:35:36;17.23;;;9.38;;
64686;SDS011;51113;53.646;-113.674;2023-02-03T15:38:05;18.80;;;9.10;;
64686;SDS011;51113;53.646;-113.674;2023-02-03T15:40:43;16.98;;;9.75;;
64686;SDS011;51113;53.646;-113.674;2023-02-03T15:43:15;17.63;;;9.63;;
64686;SDS011;51113;53.646;-113.674;2023-02-03T15:46:05;18.50;;;10.10;;
64686;SDS011;51113;53.646;-113.674;2023-02-03T15:48:40;20.30;;;9.63;;
64686;SDS011;51113;53.646;-113.674;2023-02-03T15:51:19;14.32;;;8.57;;
64686;SDS011;51113;53.646;-113.674;2023-02-03T15:54:30;15.43;;;8.70;;
64686;SDS011;51113;53.646;-113.674;2023-02-03T15:57:08;13.68;;;8.23;;
64686;SDS011;51113;53.646;-113.674;2023-02-03T15:59:52;19.02;;;9.60;;
64686;SDS011;51113;53.646;-113.674;2023-02-03T16:02:43;17.98;;;8.63;;
64686;SDS011;51113;53.646;-113.674;2023-02-03T16:07:54;14.55;;;8.57;;
64686;SDS011;51113;53.646;-113.674;2023-02-03T16:10:24;21.92;;;9.23;;
64686;SDS011;51113;53.646;-113.674;2023-02-03T16:15:57;18.88;;;9.52;;
64686;SDS011;51113;53.646;-113.674;2023-02-03T16:18:28;16.65;;;9.70;;
64686;SDS011;51113;53.646;-113.674;2023-02-03T16:20:57;18.05;;;9.45;;
64686;SDS011;51113;53.646;-113.674;2023-02-03T16:23:26;17.13;;;9.38;;
64686;SDS011;51113;53.646;-113.674;2023-02-03T16:26:03;17.60;;;9.57;;
64686;SDS011;51113;53.646;-113.674;2023-02-03T16:31:49;15.18;;;8.35;;
64686;SDS011;51113;53.646;-113.674;2023-02-03T16:34:36;12.88;;;7.65;;
64686;SDS011;51113;53.646;-113.674;2023-02-03T16:37:25;12.07;;;7.65;;
64686;SDS011;51113;53.646;-113.674;2023-02-03T16:40:12;14.77;;;7.10;;
64686;SDS011;51113;53.646;-113.674;2023-02-03T16:43:02;16.08;;;7.80;;
64686;SDS011;51113;53.646;-113.674;2023-02-03T16:45:53;11.85;;;6.78;;
64686;SDS011;51113;53.646;-113.674;2023-02-03T16:48:41;12.00;;;7.22;;
64686;SDS011;51113;53.646;-113.674;2023-02-03T16:51:34;12.55;;;6.75;;
64686;SDS011;51113;53.646;-113.674;2023-02-03T16:54:11;15.07;;;7.40;;
64686;SDS011;51113;53.646;-113.674;2023-02-03T16:56:41;14.13;;;7.25;;
64686;SDS011;51113;53.646;-113.674;2023-02-03T16:59:10;11.50;;;6.88;;
64686;SDS011;51113;53.646;-113.674;2023-02-03T17:01:38;12.98;;;7.32;;
64686;SDS011;51113;53.646;-113.674;2023-02-03T17:04:07;13.85;;;8.52;;
64686;SDS011;51113;53.646;-113.674;2023-02-03T17:06:38;12.77;;;8.00;;
64686;SDS011;51113;53.646;-113.674;2023-02-03T17:09:07;13.10;;;8.30;;
64686;SDS011;51113;53.646;-113.674;2023-02-03T17:11:35;13.43;;;8.70;;